sensor_id;sensor_type;location;lat;lon;timestamp;P1;durP1;ratioP1;P2;durP2;ratioP2
52940;SDS011;62001;53.366;6.636;2023-07-22T00:02:17;10.38;;;4.30;;
52940;SDS011;62001;53.366;6.636;2023-07-22T00:04:43;8.75;;;4.63;;
52940;SDS011;62001;53.366;6.636;2023-07-22T00:07:09;8.68;;;4.85;;
52940;SDS011;62001;53.366;6.636;2023-07-22T00:09:35;9.00;;;4.53;;
52940;SDS011;62001;53.366;6.636;2023-07-22T00:12:01;10.90;;;5.38;;
52940;SDS011;62001;53.366;6.636;2023-07-22T00:14:26;9.48;;;4.93;;
52940;SDS011;62001;53.366;6.636;2023-07-22T00:16:52;10.25;;;4.97;;
52940;SDS011;62001;53.366;6.636;2023-07-22T00:19:18;9.73;;;4.85;;
52940;SDS011;62001;53.366;6.636;2023-07-22T00:21:44;7.43;;;4.22;;
52940;SDS011;62001;53.366;6.636;2023-07-22T00:24:10;11.15;;;5.03;;
52940;SDS011;62001;53.366;6.636;2023-07-22T00:26:36;14.18;;;5.22;;
52940;SDS011;62001;53.366;6.636;2023-07-22T00:29:02;5.97;;;3.97;;
52940;SDS011;62001;53.366;6.636;2023-07-22T00:31:28;6.57;;;3.80;;
52940;SDS011;62001;53.366;6.636;2023-07-22T00:33:54;7.70;;;4.20;;
52940;SDS011;62001;53.366;6.636;2023-07-22T00:36:19;7.43;;;4.00;;
52940;SDS011;62001;53.366;6.636;2023-07-22T00:38:45;8.43;;;3.97;;
52940;SDS011;62001;53.366;6.636;2023-07-22T00:41:11;7.90;;;3.72;;
52940;SDS011;62001;53.366;6.636;2023-07-22T00:43:37;8.88;;;3.90;;
52940;SDS011;62001;53.366;6.636;2023-07-22T00:46:03;8.65;;;3.80;;
52940;SDS011;62001;53.366;6.636;2023-07-22T00:48:29;7.32;;;3.20;;
52940;SDS011;62001;53.366;6.636;2023-07-22T00:50:57;7.07;;;3.50;;
52940;SDS011;62001;53.366;6.636;2023-07-22T00:53:23;6.18;;;3.45;;
52940;SDS011;62001;53.366;6.636;2023-07-22T00:55:49;9.15;;;3.88;;
52940;SDS011;62001;53.366;6.636;2023-07-22T00:58:15;7.93;;;3.78;;
52940;SDS011;62001;53.366;6.636;2023-07-22T01:00:41;6.85;;;3.45;;
52940;SDS011;62001;53.366;6.636;2023-07-22T01:03:07;6.60;;;3.65;;
52940;SDS011;62001;53.366;6.636;2023-07-22T01:05:33;7.78;;;3.65;;
52940;SDS011;62001;53.366;6.636;2023-07-22T01:08:02;7.78;;;3.88;;
52940;SDS011;62001;53.366;6.636;2023-07-22T01:10:27;5.80;;;3.65;;
52940;SDS011;62001;53.366;6.636;2023-07-22T01:12:53;8.95;;;3.85;;
52940;SDS011;62001;53.366;6.636;2023-07-22T01:15:20;6.50;;;3.60;;
52940;SDS011;62001;53.366;6.636;2023-07-22T01:17:46;4.45;;;3.38;;
52940;SDS011;62001;53.366;6.636;2023-07-22T01:20:13;6.18;;;3.80;;
52940;SDS011;62001;53.366;6.636;2023-07-22T01:22:39;5.97;;;4.10;;
52940;SDS011;62001;53.366;6.636;2023-07-22T01:25:08;8.40;;;4.18;;
52940;SDS011;62001;53.366;6.636;2023-07-22T01:27:34;12.15;;;3.97;;
52940;SDS011;62001;53.366;6.636;2023-07-22T01:30:00;8.68;;;4.05;;
52940;SDS011;62001;53.366;6.636;2023-07-22T01:32:28;5.93;;;3.72;;
52940;SDS011;62001;53.366;6.636;2023-07-22T01:34:54;10.25;;;3.92;;
52940;SDS011;62001;53.366;6.636;2023-07-22T01:37:19;13.10;;;4.30;;
52940;SDS011;62001;53.366;6.636;2023-07-22T01:39:45;8.60;;;4.07;;
52940;SDS011;62001;53.366;6.636;2023-07-22T01:42:11;6.05;;;3.65;;
52940;SDS011;62001;53.366;6.636;2023-07-22T01:44:37;7.05;;;3.80;;
52940;SDS011;62001;53.366;6.636;2023-07-22T01:47:05;9.48;;;3.88;;
52940;SDS011;62001;53.366;6.636;2023-07-22T01:49:31;6.32;;;3.78;;
52940;SDS011;62001;53.366;6.636;2023-07-22T01:51:57;10.52;;;4.60;;
52940;SDS011;62001;53.366;6.636;2023-07-22T01:54:23;13.20;;;4.38;;
52940;SDS011;62001;53.366;6.636;2023-07-22T01:56:49;8.15;;;4.55;;
52940;SDS011;62001;53.366;6.636;2023-07-22T01:59:15;7.97;;;4.28;;
52940;SDS011;62001;53.366;6.636;2023-07-22T02:01:41;6.50;;;4.47;;
52940;SDS011;62001;53.366;6.636;2023-07-22T02:04:07;8.48;;;4.32;;
52940;SDS011;62001;53.366;6.636;2023-07-22T02:06:33;6.68;;;4.15;;
52940;SDS011;62001;53.366;6.636;2023-07-22T02:08:59;8.23;;;4.38;;
52940;SDS011;62001;53.366;6.636;2023-07-22T02:11:33;6.45;;;4.03;;
52940;SDS011;62001;53.366;6.636;2023-07-22T02:14:00;7.78;;;4.13;;
52940;SDS011;62001;53.366;6.636;2023-07-22T02:16:25;12.27;;;4.50;;
52940;SDS011;62001;53.366;6.636;2023-07-22T02:18:51;7.13;;;4.75;;
52940;SDS011;62001;53.366;6.636;2023-07-22T02:21:17;8.52;;;4.60;;
52940;SDS011;62001;53.366;6.636;2023-07-22T02:23:43;8.02;;;4.35;;
52940;SDS011;62001;53.366;6.636;2023-07-22T02:26:09;9.65;;;4.65;;
52940;SDS011;62001;53.366;6.636;2023-07-22T02:28:34;8.93;;;4.90;;
52940;SDS011;62001;53.366;6.636;2023-07-22T02:31:01;11.18;;;5.30;;
52940;SDS011;62001;53.366;6.636;2023-07-22T02:33:32;9.65;;;4.82;;
52940;SDS011;62001;53.366;6.636;2023-07-22T02:35:58;9.88;;;4.90;;
52940;SDS011;62001;53.366;6.636;2023-07-22T02:38:23;9.18;;;5.07;;
52940;SDS011;62001;53.366;6.636;2023-07-22T02:40:49;12.55;;;4.60;;
52940;SDS011;62001;53.366;6.636;2023-07-22T02:43:15;7.43;;;5.10;;
52940;SDS011;62001;53.366;6.636;2023-07-22T02:45:41;10.60;;;5.18;;
52940;SDS011;62001;53.366;6.636;2023-07-22T02:48:07;9.05;;;5.00;;
52940;SDS011;62001;53.366;6.636;2023-07-22T02:50:34;12.93;;;5.38;;
52940;SDS011;62001;53.366;6.636;2023-07-22T02:53:00;10.00;;;5.75;;
52940;SDS011;62001;53.366;6.636;2023-07-22T02:55:26;12.07;;;5.82;;
52940;SDS011;62001;53.366;6.636;2023-07-22T02:57:51;11.90;;;5.78;;
52940;SDS011;62001;53.366;6.636;2023-07-22T03:00:18;11.00;;;5.45;;
52940;SDS011;62001;53.366;6.636;2023-07-22T03:02:52;10.65;;;5.30;;
52940;SDS011;62001;53.366;6.636;2023-07-22T03:05:18;10.68;;;5.63;;
52940;SDS011;62001;53.366;6.636;2023-07-22T03:07:45;10.98;;;5.28;;
52940;SDS011;62001;53.366;6.636;2023-07-22T03:10:11;9.32;;;5.22;;
52940;SDS011;62001;53.366;6.636;2023-07-22T03:12:37;10.90;;;5.60;;
52940;SDS011;62001;53.366;6.636;2023-07-22T03:15:03;9.35;;;5.85;;
52940;SDS011;62001;53.366;6.636;2023-07-22T03:17:33;9.73;;;5.40;;
52940;SDS011;62001;53.366;6.636;2023-07-22T03:20:00;12.55;;;5.57;;
52940;SDS011;62001;53.366;6.636;2023-07-22T03:22:30;11.35;;;5.50;;
52940;SDS011;62001;53.366;6.636;2023-07-22T03:24:56;15.18;;;5.47;;
52940;SDS011;62001;53.366;6.636;2023-07-22T03:27:22;10.55;;;5.65;;
52940;SDS011;62001;53.366;6.636;2023-07-22T03:29:48;12.00;;;5.53;;
52940;SDS011;62001;53.366;6.636;2023-07-22T03:32:14;13.25;;;6.00;;
52940;SDS011;62001;53.366;6.636;2023-07-22T03:34:40;15.85;;;6.40;;
52940;SDS011;62001;53.366;6.636;2023-07-22T03:37:06;10.43;;;5.60;;
52940;SDS011;62001;53.366;6.636;2023-07-22T03:39:32;14.15;;;5.68;;
52940;SDS011;62001;53.366;6.636;2023-07-22T03:41:58;8.98;;;5.57;;
52940;SDS011;62001;53.366;6.636;2023-07-22T03:44:24;9.82;;;5.30;;
52940;SDS011;62001;53.366;6.636;2023-07-22T03:46:51;11.07;;;6.20;;
52940;SDS011;62001;53.366;6.636;2023-07-22T03:49:17;10.15;;;6.05;;
52940;SDS011;62001;53.366;6.636;2023-07-22T03:51:42;10.10;;;5.88;;
52940;SDS011;62001;53.366;6.636;2023-07-22T03:54:08;14.20;;;6.40;;
52940;SDS011;62001;53.366;6.636;2023-07-22T03:56:34;8.77;;;5.90;;
52940;SDS011;62001;53.366;6.636;2023-07-22T03:59:00;13.20;;;6.68;;
52940;SDS011;62001;53.366;6.636;2023-07-22T04:01:26;10.82;;;6.38;;
52940;SDS011;62001;53.366;6.636;2023-07-22T04:03:51;12.27;;;6.22;;
52940;SDS011;62001;53.366;6.636;2023-07-22T04:06:17;11.40;;;6.00;;
52940;SDS011;62001;53.366;6.636;2023-07-22T04:08:43;10.13;;;5.85;;
52940;SDS011;62001;53.366;6.636;2023-07-22T04:11:10;11.82;;;5.82;;
52940;SDS011;62001;53.366;6.636;2023-07-22T04:13:36;11.25;;;5.68;;
52940;SDS011;62001;53.366;6.636;2023-07-22T04:16:02;13.25;;;6.00;;
52940;SDS011;62001;53.366;6.636;2023-07-22T04:18:28;14.73;;;6.40;;
52940;SDS011;62001;53.366;6.636;2023-07-22T04:20:59;13.13;;;6.05;;
52940;SDS011;62001;53.366;6.636;2023-07-22T04:23:26;13.32;;;6.18;;
52940;SDS011;62001;53.366;6.636;2023-07-22T04:25:52;15.18;;;6.68;;
52940;SDS011;62001;53.366;6.636;2023-07-22T04:28:18;15.15;;;6.25;;
52940;SDS011;62001;53.366;6.636;2023-07-22T04:30:53;9.90;;;6.47;;
52940;SDS011;62001;53.366;6.636;2023-07-22T04:33:20;13.15;;;6.50;;
52940;SDS011;62001;53.366;6.636;2023-07-22T04:35:46;11.98;;;6.43;;
52940;SDS011;62001;53.366;6.636;2023-07-22T04:38:12;14.95;;;6.82;;
52940;SDS011;62001;53.366;6.636;2023-07-22T04:40:42;11.82;;;6.40;;
52940;SDS011;62001;53.366;6.636;2023-07-22T04:43:08;13.30;;;5.97;;
52940;SDS011;62001;53.366;6.636;2023-07-22T04:45:34;11.00;;;5.78;;
52940;SDS011;62001;53.366;6.636;2023-07-22T04:48:01;11.45;;;5.55;;
52940;SDS011;62001;53.366;6.636;2023-07-22T04:50:27;11.05;;;6.07;;
52940;SDS011;62001;53.366;6.636;2023-07-22T04:52:53;10.27;;;6.00;;
52940;SDS011;62001;53.366;6.636;2023-07-22T04:55:20;11.10;;;5.90;;
52940;SDS011;62001;53.366;6.636;2023-07-22T04:57:46;9.32;;;5.15;;
52940;SDS011;62001;53.366;6.636;2023-07-22T05:00:12;9.18;;;4.88;;
52940;SDS011;62001;53.366;6.636;2023-07-22T05:02:41;8.95;;;5.07;;
52940;SDS011;62001;53.366;6.636;2023-07-22T05:05:13;10.02;;;4.85;;
52940;SDS011;62001;53.366;6.636;2023-07-22T05:07:40;11.50;;;5.07;;
52940;SDS011;62001;53.366;6.636;2023-07-22T05:10:07;12.75;;;4.95;;
52940;SDS011;62001;53.366;6.636;2023-07-22T05:15:09;11.25;;;4.65;;
52940;SDS011;62001;53.366;6.636;2023-07-22T05:17:39;10.20;;;4.30;;
52940;SDS011;62001;53.366;6.636;2023-07-22T05:20:05;10.50;;;4.55;;
52940;SDS011;62001;53.366;6.636;2023-07-22T05:22:34;9.27;;;4.60;;
52940;SDS011;62001;53.366;6.636;2023-07-22T05:25:00;7.32;;;4.35;;
52940;SDS011;62001;53.366;6.636;2023-07-22T05:27:26;13.45;;;4.90;;
52940;SDS011;62001;53.366;6.636;2023-07-22T05:29:52;10.88;;;5.25;;
52940;SDS011;62001;53.366;6.636;2023-07-22T05:32:18;11.32;;;4.53;;
52940;SDS011;62001;53.366;6.636;2023-07-22T05:34:44;9.80;;;5.13;;
52940;SDS011;62001;53.366;6.636;2023-07-22T05:37:10;11.52;;;5.20;;
52940;SDS011;62001;53.366;6.636;2023-07-22T05:39:35;12.32;;;5.10;;
52940;SDS011;62001;53.366;6.636;2023-07-22T05:42:01;8.70;;;5.35;;
52940;SDS011;62001;53.366;6.636;2023-07-22T05:44:27;10.07;;;6.10;;
52940;SDS011;62001;53.366;6.636;2023-07-22T05:46:54;12.32;;;5.65;;
52940;SDS011;62001;53.366;6.636;2023-07-22T05:49:20;11.45;;;5.80;;
52940;SDS011;62001;53.366;6.636;2023-07-22T05:51:46;11.38;;;6.07;;
52940;SDS011;62001;53.366;6.636;2023-07-22T05:54:12;13.25;;;6.57;;
52940;SDS011;62001;53.366;6.636;2023-07-22T05:56:38;11.90;;;6.32;;
52940;SDS011;62001;53.366;6.636;2023-07-22T05:59:04;11.50;;;6.70;;
52940;SDS011;62001;53.366;6.636;2023-07-22T06:01:29;11.05;;;6.78;;
52940;SDS011;62001;53.366;6.636;2023-07-22T06:03:55;9.48;;;6.93;;
52940;SDS011;62001;53.366;6.636;2023-07-22T06:06:21;12.82;;;7.00;;
52940;SDS011;62001;53.366;6.636;2023-07-22T06:08:47;11.38;;;6.65;;
52940;SDS011;62001;53.366;6.636;2023-07-22T06:11:13;10.25;;;7.05;;
52940;SDS011;62001;53.366;6.636;2023-07-22T06:13:38;10.77;;;6.53;;
52940;SDS011;62001;53.366;6.636;2023-07-22T06:16:04;11.63;;;7.10;;
52940;SDS011;62001;53.366;6.636;2023-07-22T06:18:30;9.63;;;7.10;;
52940;SDS011;62001;53.366;6.636;2023-07-22T06:20:56;11.30;;;8.00;;
52940;SDS011;62001;53.366;6.636;2023-07-22T06:23:22;11.95;;;7.13;;
52940;SDS011;62001;53.366;6.636;2023-07-22T06:25:48;11.93;;;7.72;;
52940;SDS011;62001;53.366;6.636;2023-07-22T06:28:14;10.50;;;7.40;;
52940;SDS011;62001;53.366;6.636;2023-07-22T06:30:39;11.88;;;7.68;;
52940;SDS011;62001;53.366;6.636;2023-07-22T06:33:05;11.15;;;7.60;;
52940;SDS011;62001;53.366;6.636;2023-07-22T06:35:31;10.45;;;7.68;;
52940;SDS011;62001;53.366;6.636;2023-07-22T06:37:57;11.43;;;7.70;;
52940;SDS011;62001;53.366;6.636;2023-07-22T06:40:24;10.43;;;7.22;;
52940;SDS011;62001;53.366;6.636;2023-07-22T06:42:50;10.57;;;7.93;;
52940;SDS011;62001;53.366;6.636;2023-07-22T06:45:16;9.95;;;7.90;;
52940;SDS011;62001;53.366;6.636;2023-07-22T06:47:42;10.25;;;7.70;;
52940;SDS011;62001;53.366;6.636;2023-07-22T06:50:09;13.80;;;8.05;;
52940;SDS011;62001;53.366;6.636;2023-07-22T06:52:35;11.85;;;8.40;;
52940;SDS011;62001;53.366;6.636;2023-07-22T06:55:01;10.60;;;8.40;;
52940;SDS011;62001;53.366;6.636;2023-07-22T06:57:27;12.38;;;8.43;;
52940;SDS011;62001;53.366;6.636;2023-07-22T06:59:54;10.75;;;7.90;;
52940;SDS011;62001;53.366;6.636;2023-07-22T07:02:20;11.73;;;7.93;;
52940;SDS011;62001;53.366;6.636;2023-07-22T07:04:47;12.00;;;8.70;;
52940;SDS011;62001;53.366;6.636;2023-07-22T07:07:13;11.25;;;8.50;;
52940;SDS011;62001;53.366;6.636;2023-07-22T07:09:40;12.40;;;8.82;;
52940;SDS011;62001;53.366;6.636;2023-07-22T07:12:06;12.15;;;8.60;;
52940;SDS011;62001;53.366;6.636;2023-07-22T07:14:33;11.32;;;8.75;;
52940;SDS011;62001;53.366;6.636;2023-07-22T07:16:59;10.95;;;8.45;;
52940;SDS011;62001;53.366;6.636;2023-07-22T07:19:26;13.02;;;8.45;;
52940;SDS011;62001;53.366;6.636;2023-07-22T07:21:52;13.48;;;9.65;;
52940;SDS011;62001;53.366;6.636;2023-07-22T07:24:18;10.75;;;8.63;;
52940;SDS011;62001;53.366;6.636;2023-07-22T07:26:43;12.65;;;8.30;;
52940;SDS011;62001;53.366;6.636;2023-07-22T07:29:09;11.35;;;8.73;;
52940;SDS011;62001;53.366;6.636;2023-07-22T07:31:36;12.80;;;8.85;;
52940;SDS011;62001;53.366;6.636;2023-07-22T07:34:02;11.05;;;8.43;;
52940;SDS011;62001;53.366;6.636;2023-07-22T07:36:28;11.52;;;8.75;;
52940;SDS011;62001;53.366;6.636;2023-07-22T07:38:55;11.98;;;9.32;;
52940;SDS011;62001;53.366;6.636;2023-07-22T07:41:20;14.63;;;10.05;;
52940;SDS011;62001;53.366;6.636;2023-07-22T07:43:47;16.08;;;10.40;;
52940;SDS011;62001;53.366;6.636;2023-07-22T07:48:42;14.68;;;9.85;;
52940;SDS011;62001;53.366;6.636;2023-07-22T07:51:12;14.88;;;10.13;;
52940;SDS011;62001;53.366;6.636;2023-07-22T07:53:39;17.13;;;10.88;;
52940;SDS011;62001;53.366;6.636;2023-07-22T07:56:06;14.85;;;10.50;;
52940;SDS011;62001;53.366;6.636;2023-07-22T07:58:33;14.18;;;9.52;;
52940;SDS011;62001;53.366;6.636;2023-07-22T08:00:59;13.70;;;10.18;;
52940;SDS011;62001;53.366;6.636;2023-07-22T08:03:25;14.90;;;9.88;;
52940;SDS011;62001;53.366;6.636;2023-07-22T08:05:51;17.42;;;10.50;;
52940;SDS011;62001;53.366;6.636;2023-07-22T08:08:17;15.43;;;10.15;;
52940;SDS011;62001;53.366;6.636;2023-07-22T08:10:43;14.02;;;10.32;;
52940;SDS011;62001;53.366;6.636;2023-07-22T08:13:09;17.27;;;11.00;;
52940;SDS011;62001;53.366;6.636;2023-07-22T08:15:35;12.98;;;10.25;;
52940;SDS011;62001;53.366;6.636;2023-07-22T08:18:02;12.98;;;10.15;;
52940;SDS011;62001;53.366;6.636;2023-07-22T08:20:29;14.50;;;10.02;;
52940;SDS011;62001;53.366;6.636;2023-07-22T08:22:55;13.90;;;9.35;;
52940;SDS011;62001;53.366;6.636;2023-07-22T08:25:21;14.07;;;9.88;;
52940;SDS011;62001;53.366;6.636;2023-07-22T08:27:47;12.27;;;9.40;;
52940;SDS011;62001;53.366;6.636;2023-07-22T08:30:13;14.88;;;10.27;;
52940;SDS011;62001;53.366;6.636;2023-07-22T08:32:39;13.90;;;10.45;;
52940;SDS011;62001;53.366;6.636;2023-07-22T08:35:05;12.20;;;9.90;;
52940;SDS011;62001;53.366;6.636;2023-07-22T08:37:32;15.00;;;10.02;;
52940;SDS011;62001;53.366;6.636;2023-07-22T08:39:58;11.50;;;8.63;;
52940;SDS011;62001;53.366;6.636;2023-07-22T08:42:23;11.82;;;9.80;;
52940;SDS011;62001;53.366;6.636;2023-07-22T08:44:55;14.00;;;9.30;;
52940;SDS011;62001;53.366;6.636;2023-07-22T08:47:22;13.77;;;10.40;;
52940;SDS011;62001;53.366;6.636;2023-07-22T08:49:52;16.58;;;10.15;;
52940;SDS011;62001;53.366;6.636;2023-07-22T08:54:49;13.25;;;9.60;;
52940;SDS011;62001;53.366;6.636;2023-07-22T08:57:15;14.57;;;10.55;;
52940;SDS011;62001;53.366;6.636;2023-07-22T08:59:42;13.00;;;9.98;;
52940;SDS011;62001;53.366;6.636;2023-07-22T09:02:12;15.13;;;11.00;;
52940;SDS011;62001;53.366;6.636;2023-07-22T09:04:39;15.05;;;10.88;;
52940;SDS011;62001;53.366;6.636;2023-07-22T09:07:07;14.93;;;9.85;;
52940;SDS011;62001;53.366;6.636;2023-07-22T09:09:34;10.77;;;8.00;;
52940;SDS011;62001;53.366;6.636;2023-07-22T09:12:01;13.80;;;8.50;;
52940;SDS011;62001;53.366;6.636;2023-07-22T09:14:27;10.85;;;7.10;;
52940;SDS011;62001;53.366;6.636;2023-07-22T09:16:55;10.10;;;5.50;;
52940;SDS011;62001;53.366;6.636;2023-07-22T09:19:22;9.07;;;5.47;;
52940;SDS011;62001;53.366;6.636;2023-07-22T09:21:48;7.22;;;5.38;;
52940;SDS011;62001;53.366;6.636;2023-07-22T09:24:32;7.50;;;6.03;;
52940;SDS011;62001;53.366;6.636;2023-07-22T09:26:58;7.32;;;6.38;;
52940;SDS011;62001;53.366;6.636;2023-07-22T09:29:33;12.98;;;8.30;;
52940;SDS011;62001;53.366;6.636;2023-07-22T09:32:00;9.88;;;7.47;;
52940;SDS011;62001;53.366;6.636;2023-07-22T09:34:27;7.70;;;6.80;;
52940;SDS011;62001;53.366;6.636;2023-07-22T09:36:53;8.82;;;6.53;;
52940;SDS011;62001;53.366;6.636;2023-07-22T09:39:25;9.98;;;6.28;;
52940;SDS011;62001;53.366;6.636;2023-07-22T09:41:51;8.27;;;6.22;;
52940;SDS011;62001;53.366;6.636;2023-07-22T09:44:20;8.55;;;5.93;;
52940;SDS011;62001;53.366;6.636;2023-07-22T09:46:48;8.18;;;6.53;;
52940;SDS011;62001;53.366;6.636;2023-07-22T09:49:15;7.80;;;6.43;;
52940;SDS011;62001;53.366;6.636;2023-07-22T09:51:43;9.82;;;7.18;;
52940;SDS011;62001;53.366;6.636;2023-07-22T09:54:09;9.13;;;7.25;;
52940;SDS011;62001;53.366;6.636;2023-07-22T09:56:45;11.65;;;8.15;;
52940;SDS011;62001;53.366;6.636;2023-07-22T09:59:12;11.05;;;8.35;;
52940;SDS011;62001;53.366;6.636;2023-07-22T10:01:38;14.20;;;9.80;;
52940;SDS011;62001;53.366;6.636;2023-07-22T10:04:05;18.70;;;10.05;;
52940;SDS011;62001;53.366;6.636;2023-07-22T10:06:32;15.38;;;10.25;;
52940;SDS011;62001;53.366;6.636;2023-07-22T10:09:01;15.18;;;9.52;;
52940;SDS011;62001;53.366;6.636;2023-07-22T10:11:30;12.23;;;8.10;;
52940;SDS011;62001;53.366;6.636;2023-07-22T10:13:57;11.43;;;7.63;;
52940;SDS011;62001;53.366;6.636;2023-07-22T10:16:24;15.38;;;9.15;;
52940;SDS011;62001;53.366;6.636;2023-07-22T10:18:51;10.20;;;6.90;;
52940;SDS011;62001;53.366;6.636;2023-07-22T10:21:17;9.57;;;6.75;;
52940;SDS011;62001;53.366;6.636;2023-07-22T10:23:44;9.45;;;6.95;;
52940;SDS011;62001;53.366;6.636;2023-07-22T10:26:13;10.75;;;6.72;;
52940;SDS011;62001;53.366;6.636;2023-07-22T10:28:42;11.50;;;7.37;;
52940;SDS011;62001;53.366;6.636;2023-07-22T10:31:10;10.88;;;7.00;;
52940;SDS011;62001;53.366;6.636;2023-07-22T10:33:38;9.07;;;6.25;;
52940;SDS011;62001;53.366;6.636;2023-07-22T10:36:05;9.38;;;6.55;;
52940;SDS011;62001;53.366;6.636;2023-07-22T10:38:33;10.23;;;6.68;;
52940;SDS011;62001;53.366;6.636;2023-07-22T10:41:00;10.13;;;6.60;;
52940;SDS011;62001;53.366;6.636;2023-07-22T10:43:36;13.60;;;6.97;;
52940;SDS011;62001;53.366;6.636;2023-07-22T10:46:11;10.40;;;8.50;;
52940;SDS011;62001;53.366;6.636;2023-07-22T10:48:41;11.98;;;8.43;;
52940;SDS011;62001;53.366;6.636;2023-07-22T10:51:09;11.68;;;8.23;;
52940;SDS011;62001;53.366;6.636;2023-07-22T10:53:43;10.80;;;8.07;;
52940;SDS011;62001;53.366;6.636;2023-07-22T10:56:14;11.80;;;8.18;;
52940;SDS011;62001;53.366;6.636;2023-07-22T11:14:52;14.93;;;9.88;;
52940;SDS011;62001;53.366;6.636;2023-07-22T11:17:29;13.90;;;9.63;;
52940;SDS011;62001;53.366;6.636;2023-07-22T11:19:56;12.60;;;9.52;;
52940;SDS011;62001;53.366;6.636;2023-07-22T11:22:25;14.80;;;10.30;;
52940;SDS011;62001;53.366;6.636;2023-07-22T11:24:54;16.42;;;10.93;;
52940;SDS011;62001;53.366;6.636;2023-07-22T11:27:21;13.02;;;10.40;;
52940;SDS011;62001;53.366;6.636;2023-07-22T11:29:50;14.75;;;9.93;;
52940;SDS011;62001;53.366;6.636;2023-07-22T11:32:16;13.18;;;10.20;;
52940;SDS011;62001;53.366;6.636;2023-07-22T11:34:43;14.43;;;10.27;;
52940;SDS011;62001;53.366;6.636;2023-07-22T11:37:10;14.65;;;10.18;;
52940;SDS011;62001;53.366;6.636;2023-07-22T11:39:35;12.05;;;9.10;;
52940;SDS011;62001;53.366;6.636;2023-07-22T11:42:03;11.35;;;8.13;;
52940;SDS011;62001;53.366;6.636;2023-07-22T11:44:29;9.52;;;7.40;;
52940;SDS011;62001;53.366;6.636;2023-07-22T11:47:05;10.10;;;7.50;;
52940;SDS011;62001;53.366;6.636;2023-07-22T11:49:36;9.50;;;6.55;;
52940;SDS011;62001;53.366;6.636;2023-07-22T11:52:04;8.65;;;7.22;;
52940;SDS011;62001;53.366;6.636;2023-07-22T11:54:32;6.47;;;5.45;;
52940;SDS011;62001;53.366;6.636;2023-07-22T11:59:37;8.02;;;5.68;;
52940;SDS011;62001;53.366;6.636;2023-07-22T12:02:05;6.88;;;5.82;;
52940;SDS011;62001;53.366;6.636;2023-07-22T12:04:32;8.20;;;6.85;;
52940;SDS011;62001;53.366;6.636;2023-07-22T12:06:59;10.68;;;7.03;;
52940;SDS011;62001;53.366;6.636;2023-07-22T12:09:26;9.00;;;7.28;;
52940;SDS011;62001;53.366;6.636;2023-07-22T12:11:55;9.20;;;7.30;;
52940;SDS011;62001;53.366;6.636;2023-07-22T12:14:32;11.15;;;7.82;;
52940;SDS011;62001;53.366;6.636;2023-07-22T12:17:00;10.15;;;8.10;;
52940;SDS011;62001;53.366;6.636;2023-07-22T12:19:27;10.02;;;7.20;;
52940;SDS011;62001;53.366;6.636;2023-07-22T12:21:55;8.57;;;7.22;;
52940;SDS011;62001;53.366;6.636;2023-07-22T12:24:21;8.75;;;7.05;;
52940;SDS011;62001;53.366;6.636;2023-07-22T12:26:46;8.93;;;6.78;;
52940;SDS011;62001;53.366;6.636;2023-07-22T12:29:12;9.75;;;6.82;;
52940;SDS011;62001;53.366;6.636;2023-07-22T12:31:38;10.85;;;7.63;;
52940;SDS011;62001;53.366;6.636;2023-07-22T12:34:04;9.35;;;7.38;;
52940;SDS011;62001;53.366;6.636;2023-07-22T12:36:30;9.98;;;7.43;;
52940;SDS011;62001;53.366;6.636;2023-07-22T12:38:55;9.25;;;8.20;;
52940;SDS011;62001;53.366;6.636;2023-07-22T12:41:21;10.35;;;8.57;;
52940;SDS011;62001;53.366;6.636;2023-07-22T12:43:47;11.73;;;9.23;;
52940;SDS011;62001;53.366;6.636;2023-07-22T12:46:14;10.70;;;8.70;;
52940;SDS011;62001;53.366;6.636;2023-07-22T12:48:40;12.25;;;9.55;;
52940;SDS011;62001;53.366;6.636;2023-07-22T12:51:06;11.35;;;9.60;;
52940;SDS011;62001;53.366;6.636;2023-07-22T12:53:31;11.38;;;10.07;;
52940;SDS011;62001;53.366;6.636;2023-07-22T12:55:57;12.02;;;9.73;;
52940;SDS011;62001;53.366;6.636;2023-07-22T12:58:23;14.27;;;10.85;;
52940;SDS011;62001;53.366;6.636;2023-07-22T13:00:49;14.30;;;10.15;;
52940;SDS011;62001;53.366;6.636;2023-07-22T13:03:15;14.25;;;9.85;;
52940;SDS011;62001;53.366;6.636;2023-07-22T13:05:41;11.75;;;9.90;;
52940;SDS011;62001;53.366;6.636;2023-07-22T13:08:06;16.38;;;10.13;;
52940;SDS011;62001;53.366;6.636;2023-07-22T13:10:32;13.65;;;9.73;;
52940;SDS011;62001;53.366;6.636;2023-07-22T13:13:01;11.90;;;9.35;;
52940;SDS011;62001;53.366;6.636;2023-07-22T13:15:27;12.55;;;9.70;;
52940;SDS011;62001;53.366;6.636;2023-07-22T13:17:53;14.82;;;11.23;;
52940;SDS011;62001;53.366;6.636;2023-07-22T13:20:18;11.63;;;10.43;;
52940;SDS011;62001;53.366;6.636;2023-07-22T13:22:44;12.95;;;11.13;;
52940;SDS011;62001;53.366;6.636;2023-07-22T13:25:10;13.82;;;11.45;;
52940;SDS011;62001;53.366;6.636;2023-07-22T13:27:36;12.48;;;10.88;;
52940;SDS011;62001;53.366;6.636;2023-07-22T13:30:05;15.43;;;11.77;;
52940;SDS011;62001;53.366;6.636;2023-07-22T13:32:32;11.75;;;9.68;;
52940;SDS011;62001;53.366;6.636;2023-07-22T13:34:58;12.93;;;10.57;;
52940;SDS011;62001;53.366;6.636;2023-07-22T13:37:25;11.65;;;9.85;;
52940;SDS011;62001;53.366;6.636;2023-07-22T13:39:51;11.50;;;9.93;;
52940;SDS011;62001;53.366;6.636;2023-07-22T13:42:18;10.27;;;9.27;;
52940;SDS011;62001;53.366;6.636;2023-07-22T13:44:44;10.30;;;7.63;;
52940;SDS011;62001;53.366;6.636;2023-07-22T13:47:10;13.02;;;8.77;;
52940;SDS011;62001;53.366;6.636;2023-07-22T13:49:36;11.40;;;9.55;;
52940;SDS011;62001;53.366;6.636;2023-07-22T13:52:02;12.10;;;10.23;;
52940;SDS011;62001;53.366;6.636;2023-07-22T13:54:28;10.90;;;9.48;;
52940;SDS011;62001;53.366;6.636;2023-07-22T13:56:54;11.40;;;8.88;;
52940;SDS011;62001;53.366;6.636;2023-07-22T13:59:19;10.45;;;8.10;;
52940;SDS011;62001;53.366;6.636;2023-07-22T14:01:45;10.18;;;7.95;;
52940;SDS011;62001;53.366;6.636;2023-07-22T14:04:11;10.98;;;9.50;;
52940;SDS011;62001;53.366;6.636;2023-07-22T14:06:37;12.75;;;8.93;;
52940;SDS011;62001;53.366;6.636;2023-07-22T14:09:03;13.07;;;9.60;;
52940;SDS011;62001;53.366;6.636;2023-07-22T14:11:29;12.20;;;9.85;;
52940;SDS011;62001;53.366;6.636;2023-07-22T14:13:55;15.50;;;11.10;;
52940;SDS011;62001;53.366;6.636;2023-07-22T14:16:21;17.25;;;11.50;;
52940;SDS011;62001;53.366;6.636;2023-07-22T14:18:47;18.38;;;12.90;;
52940;SDS011;62001;53.366;6.636;2023-07-22T14:21:13;15.68;;;9.50;;
52940;SDS011;62001;53.366;6.636;2023-07-22T14:23:39;10.45;;;7.00;;
52940;SDS011;62001;53.366;6.636;2023-07-22T14:26:05;6.10;;;4.35;;
52940;SDS011;62001;53.366;6.636;2023-07-22T14:28:31;8.88;;;4.30;;
52940;SDS011;62001;53.366;6.636;2023-07-22T14:30:56;6.72;;;4.38;;
52940;SDS011;62001;53.366;6.636;2023-07-22T14:33:22;6.22;;;4.38;;
52940;SDS011;62001;53.366;6.636;2023-07-22T14:35:49;5.80;;;4.72;;
52940;SDS011;62001;53.366;6.636;2023-07-22T14:38:15;6.38;;;4.85;;
52940;SDS011;62001;53.366;6.636;2023-07-22T14:40:41;9.05;;;4.90;;
52940;SDS011;62001;53.366;6.636;2023-07-22T14:43:06;8.25;;;4.90;;
52940;SDS011;62001;53.366;6.636;2023-07-22T14:45:33;6.07;;;4.82;;
52940;SDS011;62001;53.366;6.636;2023-07-22T14:47:59;6.18;;;4.45;;
52940;SDS011;62001;53.366;6.636;2023-07-22T14:50:25;8.30;;;4.97;;
52940;SDS011;62001;53.366;6.636;2023-07-22T14:52:51;7.82;;;5.50;;
52940;SDS011;62001;53.366;6.636;2023-07-22T14:55:17;8.20;;;5.78;;
52940;SDS011;62001;53.366;6.636;2023-07-22T14:57:43;8.20;;;6.28;;
52940;SDS011;62001;53.366;6.636;2023-07-22T15:00:10;9.05;;;6.38;;
52940;SDS011;62001;53.366;6.636;2023-07-22T15:02:37;11.27;;;6.68;;